Cookies

¿Aceptas nuestras cookies?

Aceptar
VAM | Vabird-VBD

Virtual Vabird! Aerolínea Virtual de habla hispana, desde 2011




 INFORMACIÓN METAR y TAF
METAR FOR LEIB
ADDS - METARS form results

(1237 UTC 03 December 2021)
Data provider http://aviationweather.gov/metar/data/
 
METAR text: LEIB 031230Z 32008KT 270V010 9999 FEW045 15/06 Q1019 NOSIG
Conditions at: LEIB (IBIZA/ES CODOLA , ES) observed 1230 UTC 03 December 2021
Temperature: 15.0°C (59°F)
Dewpoint: 6.0°C (43°F) [RH = 55%]
Pressure (altimeter): 30.09 inches Hg (1019.0 mb)
Winds: from the NW (320 degrees) at 9 MPH (8 knots; 4.1 m/s)
Visibility: 6 or more miles (10+ km)
Ceiling: at least 12,000 feet AGL
Clouds: few clouds at 4500 feet AGL
Weather: no significant weather observed at this time

METAR text: LEIB 031200Z 35008KT 320V050 9999 FEW045 14/04 Q1019 NOSIG
Conditions at: LEIB (IBIZA/ES CODOLA , ES) observed 1200 UTC 03 December 2021
Temperature: 14.0°C (57°F)
Dewpoint: 4.0°C (39°F) [RH = 51%]
Pressure (altimeter): 30.09 inches Hg (1019.0 mb)
Winds: from the N (350 degrees) at 9 MPH (8 knots; 4.1 m/s)
Visibility: 6 or more miles (10+ km)
Ceiling: at least 12,000 feet AGL
Clouds: few clouds at 4500 feet AGL
Weather: no significant weather observed at this time

Forecast for: LEIB (IBIZA/ES CODOLA , ES)
Text: TAF LEIB 030800Z 0309/0409 33010KT 9999 FEW050 TX15/0312Z TN10/0406Z
Forecast period: 0900 to 1600 UTC 03 December 2021
Forecast type: FROM: standard forecast or significant change
Winds: from the NNW (330 degrees) at 12 MPH (10 knots; 5.1 m/s)
Visibility: 6 or more miles (10+ km)
Ceiling: at least 12,000 feet AGL
Clouds: few clouds at 5000 feet AGL
Weather: no significant weather forecast for this period
Text: BECMG 0316/0318 VRB04KT
Forecast period: 1600 to 2200 UTC 03 December 2021
Forecast type: BECOMING: Conditions expected to become as follows by 1800 UTC 03 December 2021
Winds: variable direction winds at 5 MPH (4 knots; 2.1 m/s)
Visibility: 6 or more miles (10+ km)
Ceiling: at least 12,000 feet AGL
Clouds: few clouds at 5000 feet AGL
Weather: no significant weather forecast for this period
Text: BECMG 0322/0324 27010KT
Forecast period: 2200 UTC 03 December 2021 to 0900 UTC 04 December 2021
Forecast type: BECOMING: Conditions expected to become as follows by 0000 UTC 04 December 2021
Winds: from the W (270 degrees) at 12 MPH (10 knots; 5.1 m/s)
Visibility: 6 or more miles (10+ km)
Ceiling: at least 12,000 feet AGL
Clouds: few clouds at 5000 feet AGL
Weather: no significant weather forecast for this period

 MAPA DE AEROPUERTO

 INFORMACIÓN DE PISTA